Time;durP1;ratioP1;P1;durP2;ratioP2;P2;SDS_P1;SDS_P2;PMS_P1;PMS_P2;Temp;Humidity;BMP_temperature;BMP_pressure;BME280_temperature;BME280_humidity;BME280_pressure;Samples;Min_cycle;Max_cycle;Signal;HPM_P1;HPM_P2
2021/04/07 00:00:51;;;;;;;5.37;2.47;;;1.00;99.90;;;;;;5076247;28;20476;-77
2021/04/07 00:03:18;;;;;;;6.47;2.50;;;1.00;99.90;;;;;;5077084;28;20836;-77
2021/04/07 00:05:45;;;;;;;7.60;2.80;;;1.00;99.90;;;;;;5078471;28;20445;-76
2021/04/07 00:08:16;;;;;;;11.90;3.20;;;1.00;99.90;;;;;;5086614;28;20445;-76
2021/04/07 00:10:45;;;;;;;10.00;2.87;;;1.00;99.90;;;;;;5057212;28;20449;-77
2021/04/07 00:13:14;;;;;;;5.60;2.63;;;1.00;99.90;;;;;;5058160;28;20476;-77
2021/04/07 00:15:43;;;;;;;4.80;1.90;;;1.00;99.90;;;;;;5056641;28;20572;-76
2021/04/07 00:18:10;;;;;;;5.63;2.50;;;1.00;99.90;;;;;;5055879;28;20519;-76
2021/04/07 00:20:38;;;;;;;5.50;2.10;;;1.00;99.90;;;;;;5054856;28;20453;-77
2021/04/07 00:23:06;;;;;;;6.93;3.27;;;1.00;99.90;;;;;;5055004;28;20545;-77
2021/04/07 00:25:34;;;;;;;6.87;2.60;;;0.90;99.90;;;;;;5056149;28;21069;-77
2021/04/07 00:28:03;;;;;;;4.43;2.70;;;0.90;99.90;;;;;;5059282;28;20449;-76
2021/04/07 00:30:32;;;;;;;7.20;2.37;;;0.90;99.90;;;;;;5076915;28;20500;-76
2021/04/07 00:33:01;;;;;;;5.00;1.97;;;0.90;99.90;;;;;;5078875;28;20449;-77
2021/04/07 00:35:29;;;;;;;4.43;2.30;;;0.90;99.90;;;;;;5075839;28;20444;-77
2021/04/07 00:37:56;;;;;;;6.73;2.87;;;0.90;99.90;;;;;;5075613;28;20500;-77
2021/04/07 00:40:24;;;;;;;6.70;2.23;;;0.90;99.90;;;;;;5074513;28;20500;-77
2021/04/07 00:42:52;;;;;;;10.87;3.53;;;0.90;99.90;;;;;;5075934;28;20453;-77
2021/04/07 00:45:20;;;;;;;6.87;2.50;;;0.90;99.90;;;;;;5075916;28;20437;-77
2021/04/07 00:47:48;;;;;;;5.47;2.50;;;0.90;99.90;;;;;;5077170;28;20452;-76
2021/04/07 00:50:18;;;;;;;10.53;3.20;;;0.90;99.90;;;;;;5085565;28;20591;-77
2021/04/07 00:52:46;;;;;;;8.50;3.00;;;0.80;99.90;;;;;;5094539;28;20444;-77
2021/04/07 00:55:19;;;;;;;10.70;3.13;;;0.80;99.90;;;;;;5094479;28;20447;-77
2021/04/07 00:57:47;;;;;;;8.37;2.70;;;0.80;99.90;;;;;;5094265;28;20460;-77
2021/04/07 01:00:16;;;;;;;5.67;2.97;;;0.80;99.90;;;;;;5095576;28;20543;-77
2021/04/07 01:02:44;;;;;;;6.70;2.63;;;0.80;99.90;;;;;;5094414;28;20517;-77
2021/04/07 01:05:13;;;;;;;5.50;2.70;;;0.80;99.90;;;;;;5095452;28;20436;-77
2021/04/07 01:07:41;;;;;;;6.50;2.80;;;0.80;99.90;;;;;;5094263;28;20440;-77
2021/04/07 01:10:10;;;;;;;5.93;3.10;;;0.80;99.90;;;;;;5095421;28;20452;-77
2021/04/07 01:12:38;;;;;;;8.27;3.03;;;0.80;99.90;;;;;;5095256;28;20471;-77
2021/04/07 01:15:08;;;;;;;7.30;2.70;;;0.80;99.90;;;;;;5095299;28;20440;-77
2021/04/07 01:17:35;;;;;;;8.83;3.07;;;0.80;99.90;;;;;;5090997;28;20823;-77
2021/04/07 01:20:06;;;;;;;6.30;2.87;;;0.80;99.90;;;;;;5054852;28;20457;-77
2021/04/07 01:22:34;;;;;;;6.37;3.07;;;0.80;99.90;;;;;;5074124;28;20432;-76
2021/04/07 01:25:03;;;;;;;9.30;3.67;;;0.80;99.90;;;;;;5082428;28;20448;-77
2021/04/07 01:27:31;;;;;;;7.70;2.70;;;0.80;99.90;;;;;;5094874;28;20451;-77
2021/04/07 01:29:58;;;;;;;5.93;2.70;;;0.80;99.90;;;;;;5093652;28;20475;-77
2021/04/07 01:32:25;;;;;;;8.50;2.73;;;0.80;99.90;;;;;;5093563;28;20436;-77
2021/04/07 01:34:53;;;;;;;7.23;2.30;;;0.80;99.90;;;;;;5094767;28;20800;-78
2021/04/07 01:37:20;;;;;;;12.43;3.50;;;0.80;99.90;;;;;;5092471;28;20519;-77
2021/04/07 01:39:47;;;;;;;5.50;2.33;;;0.80;99.90;;;;;;5072855;28;20469;-77
2021/04/07 01:42:15;;;;;;;5.73;2.60;;;0.70;99.90;;;;;;5075956;28;20441;-77
2021/04/07 01:44:44;;;;;;;8.70;2.70;;;0.70;99.90;;;;;;5094601;28;20444;-77
2021/04/07 01:47:13;;;;;;;6.60;2.50;;;0.70;99.90;;;;;;5093492;28;20468;-77
2021/04/07 01:49:40;;;;;;;6.07;2.80;;;0.70;99.90;;;;;;5094596;28;20460;-77
2021/04/07 01:52:08;;;;;;;6.93;2.20;;;0.70;99.90;;;;;;5094652;28;20432;-77
2021/04/07 01:54:36;;;;;;;6.87;2.20;;;0.70;99.90;;;;;;5074936;28;20449;-78
2021/04/07 01:57:03;;;;;;;6.53;3.03;;;0.70;99.90;;;;;;5074621;28;20799;-77
2021/04/07 01:59:32;;;;;;;5.97;2.43;;;0.70;99.90;;;;;;5072956;28;20531;-77
2021/04/07 02:02:00;;;;;;;9.20;3.00;;;0.70;99.90;;;;;;5070740;28;20448;-77
2021/04/07 02:04:28;;;;;;;6.90;2.50;;;0.70;99.90;;;;;;5076639;28;20440;-77
2021/04/07 02:06:56;;;;;;;4.07;2.60;;;0.70;99.90;;;;;;5087013;28;20540;-77
2021/04/07 02:09:24;;;;;;;5.80;2.20;;;0.60;99.90;;;;;;5074065;28;20461;-77
2021/04/07 02:11:53;;;;;;;5.80;1.73;;;0.60;99.90;;;;;;5074274;28;20499;-77
2021/04/07 02:14:22;;;;;;;7.03;2.03;;;0.60;99.90;;;;;;5072635;28;20441;-77
2021/04/07 02:16:52;;;;;;;8.03;2.47;;;0.60;99.90;;;;;;5072714;28;20581;-77
2021/04/07 02:19:20;;;;;;;5.80;2.60;;;0.60;99.90;;;;;;5073893;28;20551;-77
2021/04/07 02:21:53;;;;;;;5.37;2.30;;;0.60;99.90;;;;;;5088589;28;20497;-77
2021/04/07 02:24:20;;;;;;;4.80;2.30;;;0.60;99.90;;;;;;5094729;28;20463;-77
2021/04/07 02:26:47;;;;;;;4.23;2.30;;;0.60;99.90;;;;;;5092651;28;20814;-77
2021/04/07 02:29:15;;;;;;;6.37;2.50;;;0.60;99.90;;;;;;5071787;28;21047;-78
2021/04/07 02:31:42;;;;;;;5.00;1.90;;;0.50;99.90;;;;;;5075078;28;20498;-77
2021/04/07 02:34:11;;;;;;;6.87;3.27;;;0.60;99.90;;;;;;5073660;28;20437;-77
2021/04/07 02:36:38;;;;;;;5.90;2.40;;;0.50;99.90;;;;;;5072402;28;20487;-77
2021/04/07 02:39:06;;;;;;;6.00;2.27;;;0.50;99.90;;;;;;5073427;28;20477;-77
2021/04/07 02:41:33;;;;;;;6.93;2.20;;;0.50;99.90;;;;;;5072403;28;20433;-77
2021/04/07 02:44:00;;;;;;;6.73;2.60;;;0.40;99.90;;;;;;5088482;28;20933;-77
2021/04/07 02:46:28;;;;;;;5.90;2.43;;;0.50;99.90;;;;;;5092505;28;20440;-77
2021/04/07 02:48:56;;;;;;;9.70;2.00;;;0.50;99.90;;;;;;5093829;28;20456;-77
2021/04/07 02:51:24;;;;;;;8.10;3.00;;;0.50;99.90;;;;;;5081189;28;20445;-77
2021/04/07 02:53:51;;;;;;;7.40;2.90;;;0.40;99.90;;;;;;5051880;28;20482;-77
2021/04/07 02:56:19;;;;;;;5.53;2.53;;;0.40;99.90;;;;;;5088937;28;20440;-77
2021/04/07 02:58:46;;;;;;;9.00;2.92;;;0.40;99.90;;;;;;5073371;28;20918;-77
2021/04/07 03:01:14;;;;;;;5.77;2.83;;;0.50;99.90;;;;;;5073718;28;20187;-77
2021/04/07 03:03:41;;;;;;;6.43;2.53;;;0.50;99.90;;;;;;5073747;28;20494;-77
2021/04/07 03:06:08;;;;;;;7.80;3.13;;;0.50;99.90;;;;;;5073529;28;20456;-77
2021/04/07 03:08:36;;;;;;;7.10;2.67;;;0.50;99.90;;;;;;5072175;28;20453;-77
2021/04/07 03:11:04;;;;;;;8.87;2.70;;;0.40;99.90;;;;;;5072320;28;20472;-77
2021/04/07 03:13:31;;;;;;;9.43;2.50;;;0.50;99.90;;;;;;5073864;28;20441;-77
2021/04/07 03:15:59;;;;;;;5.27;2.10;;;0.40;99.90;;;;;;5073634;28;20433;-77
2021/04/07 03:18:26;;;;;;;7.00;2.60;;;0.40;99.90;;;;;;5072516;28;20465;-77
2021/04/07 03:20:53;;;;;;;7.00;2.40;;;0.40;99.90;;;;;;5075641;28;20478;-77
2021/04/07 03:23:20;;;;;;;6.90;3.23;;;0.40;99.90;;;;;;5080205;28;20555;-77
2021/04/07 03:25:49;;;;;;;8.73;3.40;;;0.30;99.90;;;;;;5093031;28;20513;-77
2021/04/07 03:28:16;;;;;;;8.57;3.50;;;0.30;99.90;;;;;;5093595;28;20448;-77
2021/04/07 03:30:50;;;;;;;7.40;3.43;;;0.30;99.90;;;;;;5093081;28;20448;-77
2021/04/07 03:33:18;;;;;;;5.53;2.60;;;0.30;99.90;;;;;;5093562;28;20477;-77
2021/04/07 03:35:46;;;;;;;6.90;2.87;;;0.30;99.90;;;;;;5093337;28;20424;-77
2021/04/07 03:38:14;;;;;;;5.83;2.60;;;0.30;99.90;;;;;;5091807;28;20460;-77
2021/04/07 03:40:41;;;;;;;7.87;2.80;;;0.30;99.90;;;;;;5092224;28;20479;-77
2021/04/07 03:43:12;;;;;;;3.80;2.50;;;0.30;99.90;;;;;;5078689;28;20479;-77
2021/04/07 03:45:42;;;;;;;4.03;2.33;;;0.30;99.90;;;;;;5081728;28;20437;-77
2021/04/07 03:48:11;;;;;;;4.93;1.97;;;0.30;99.90;;;;;;5093348;28;20420;-77
2021/04/07 03:50:38;;;;;;;7.50;2.33;;;0.30;99.90;;;;;;5087403;28;20510;-77
2021/04/07 03:53:07;;;;;;;7.80;2.70;;;0.30;99.90;;;;;;5073379;28;20966;-77
2021/04/07 03:55:34;;;;;;;8.07;2.50;;;0.30;99.90;;;;;;5073435;28;20433;-77
2021/04/07 03:58:02;;;;;;;8.17;3.37;;;0.30;99.90;;;;;;5072499;28;20469;-77
2021/04/07 04:00:31;;;;;;;7.27;2.90;;;0.30;99.90;;;;;;5073255;28;20529;-77
2021/04/07 04:02:58;;;;;;;5.00;2.20;;;0.20;99.90;;;;;;5072290;28;20441;-77
2021/04/07 04:05:25;;;;;;;7.57;2.30;;;0.30;99.90;;;;;;5077407;28;20805;-77
2021/04/07 04:07:53;;;;;;;7.77;2.50;;;0.30;99.90;;;;;;5077325;28;20977;-77
2021/04/07 04:10:20;;;;;;;9.03;3.00;;;0.20;99.90;;;;;;5085985;28;20468;-77
2021/04/07 04:12:48;;;;;;;7.30;2.90;;;0.30;99.90;;;;;;5080455;28;20960;-77
2021/04/07 04:15:20;;;;;;;5.80;2.47;;;0.30;99.90;;;;;;5077283;28;20457;-77
2021/04/07 04:17:49;;;;;;;8.97;2.73;;;0.20;99.90;;;;;;5077250;28;20514;-77
2021/04/07 04:20:18;;;;;;;7.27;2.93;;;0.20;99.90;;;;;;5078983;28;20450;-77
2021/04/07 04:22:46;;;;;;;7.33;2.20;;;0.20;99.90;;;;;;5095251;28;20440;-77
2021/04/07 04:25:15;;;;;;;5.93;2.60;;;0.20;99.90;;;;;;5095422;28;20482;-77
2021/04/07 04:27:42;;;;;;;8.30;3.03;;;0.20;99.90;;;;;;5089675;28;20461;-77
2021/04/07 04:30:12;;;;;;;8.43;3.47;;;0.20;99.90;;;;;;5080441;28;20551;-77
2021/04/07 04:32:40;;;;;;;7.90;3.37;;;0.20;99.90;;;;;;5095339;28;20470;-77
2021/04/07 04:35:10;;;;;;;8.10;3.60;;;0.20;99.90;;;;;;5096554;28;20435;-77
2021/04/07 04:37:39;;;;;;;10.83;4.27;;;0.20;99.90;;;;;;5095154;28;20475;-77
2021/04/07 04:40:08;;;;;;;8.03;6.37;;;0.20;99.90;;;;;;5095434;28;20464;-77
2021/04/07 04:42:35;;;;;;;9.03;5.80;;;0.20;99.90;;;;;;5093405;28;20441;-77
2021/04/07 04:45:03;;;;;;;8.90;5.97;;;0.20;99.90;;;;;;5094191;28;20493;-77
2021/04/07 04:47:30;;;;;;;9.27;6.07;;;0.20;99.90;;;;;;5093509;28;20440;-77
2021/04/07 04:49:59;;;;;;;12.50;6.33;;;0.20;99.90;;;;;;5096063;28;20509;-77
2021/04/07 04:52:28;;;;;;;7.30;6.20;;;0.20;99.90;;;;;;5087870;28;20444;-77
2021/04/07 04:54:55;;;;;;;13.43;7.40;;;0.20;99.90;;;;;;5096148;28;20417;-78
2021/04/07 04:57:22;;;;;;;12.53;6.73;;;0.20;99.90;;;;;;5095729;28;20490;-77
2021/04/07 04:59:49;;;;;;;11.17;7.27;;;0.20;99.90;;;;;;5087965;28;20469;-76
2021/04/07 05:02:17;;;;;;;11.47;6.70;;;0.30;99.90;;;;;;5094545;28;20456;-77
2021/04/07 05:04:44;;;;;;;9.53;6.50;;;0.30;99.90;;;;;;5093110;28;20531;-76
2021/04/07 05:07:11;;;;;;;12.03;7.63;;;0.30;99.90;;;;;;5095933;28;20483;-77
2021/04/07 05:09:40;;;;;;;11.43;6.07;;;0.30;99.90;;;;;;5094279;28;20456;-77
2021/04/07 05:12:09;;;;;;;10.60;7.00;;;0.40;99.90;;;;;;5094236;28;20444;-77
2021/04/07 05:14:40;;;;;;;11.70;7.97;;;0.40;99.90;;;;;;5094542;28;20443;-77
2021/04/07 05:17:08;;;;;;;12.33;6.90;;;0.40;99.90;;;;;;5093799;28;20444;-77
2021/04/07 05:19:36;;;;;;;15.30;6.27;;;0.40;99.90;;;;;;5094017;28;20476;-77
2021/04/07 05:22:03;;;;;;;8.90;6.10;;;0.50;99.90;;;;;;5094129;28;20462;-77
2021/04/07 05:24:32;;;;;;;9.90;7.97;;;0.50;99.90;;;;;;5095091;28;20929;-77
2021/04/07 05:27:00;;;;;;;12.87;7.47;;;0.50;99.90;;;;;;5093939;28;20459;-77
2021/04/07 05:29:28;;;;;;;11.87;7.03;;;0.60;99.90;;;;;;5094982;28;20455;-77
2021/04/07 05:32:00;;;;;;;10.07;7.40;;;0.60;99.90;;;;;;5094076;28;20518;-77
2021/04/07 05:34:32;;;;;;;10.90;8.27;;;0.60;99.90;;;;;;5094065;28;20542;-77
2021/04/07 05:37:01;;;;;;;9.63;8.63;;;0.60;99.90;;;;;;5093891;28;20527;-77
2021/04/07 05:39:29;;;;;;;11.00;8.57;;;0.70;99.90;;;;;;5095174;28;20476;-77
2021/04/07 05:41:57;;;;;;;13.60;9.40;;;0.70;99.90;;;;;;5094840;28;20435;-77
2021/04/07 05:44:28;;;;;;;11.73;8.77;;;0.70;99.90;;;;;;5095026;28;20468;-77
2021/04/07 05:46:57;;;;;;;14.27;9.27;;;0.80;99.90;;;;;;5093581;28;20483;-77
2021/04/07 05:49:26;;;;;;;10.97;8.70;;;0.80;99.90;;;;;;5093553;28;20495;-77
2021/04/07 05:51:54;;;;;;;10.80;9.37;;;0.90;99.90;;;;;;5094621;28;20458;-77
2021/04/07 05:54:21;;;;;;;10.70;7.93;;;0.90;99.90;;;;;;5094669;28;20432;-77
2021/04/07 05:56:49;;;;;;;13.67;8.80;;;0.90;99.90;;;;;;5094555;28;20451;-77
2021/04/07 05:59:16;;;;;;;8.83;7.90;;;1.00;99.90;;;;;;5093136;28;20483;-77
2021/04/07 06:01:45;;;;;;;8.80;7.90;;;1.00;99.90;;;;;;5094849;28;20420;-78
2021/04/07 06:04:15;;;;;;;10.63;7.20;;;1.10;99.90;;;;;;5093307;28;20505;-78
2021/04/07 06:06:42;;;;;;;8.10;6.70;;;1.10;99.90;;;;;;5093175;28;20546;-77
2021/04/07 06:09:11;;;;;;;9.77;7.27;;;1.10;99.90;;;;;;5093118;28;20471;-77
2021/04/07 06:11:43;;;;;;;8.53;7.13;;;1.20;99.90;;;;;;5093254;28;20435;-77
2021/04/07 06:14:11;;;;;;;9.90;7.27;;;1.20;99.90;;;;;;5093177;28;20501;-77
2021/04/07 06:16:40;;;;;;;6.53;5.83;;;1.30;99.90;;;;;;5094804;28;20438;-77
2021/04/07 06:19:14;;;;;;;7.70;6.37;;;1.30;99.90;;;;;;5094284;28;20530;-77
2021/04/07 06:21:42;;;;;;;7.47;5.97;;;1.30;99.90;;;;;;5094627;28;20466;-77
2021/04/07 06:24:10;;;;;;;7.53;6.53;;;1.40;99.90;;;;;;5094401;28;20455;-77
2021/04/07 06:26:39;;;;;;;8.10;6.33;;;1.40;99.90;;;;;;5092554;28;20885;-77
2021/04/07 06:29:12;;;;;;;6.60;5.50;;;1.40;99.90;;;;;;5092475;28;20815;-77
2021/04/07 06:31:40;;;;;;;6.53;5.70;;;1.40;99.90;;;;;;5095195;28;20924;-77
2021/04/07 06:34:10;;;;;;;8.70;6.53;;;1.40;99.90;;;;;;5093352;28;20448;-77
2021/04/07 06:36:38;;;;;;;7.37;6.63;;;1.40;99.90;;;;;;5094947;28;20412;-77
2021/04/07 06:39:06;;;;;;;8.93;6.27;;;1.50;99.90;;;;;;5093235;28;20914;-77
2021/04/07 06:41:34;;;;;;;7.63;6.83;;;1.50;99.90;;;;;;5095428;28;20416;-77
2021/04/07 06:44:03;;;;;;;9.47;8.07;;;1.50;99.90;;;;;;5093821;28;20952;-77
2021/04/07 06:46:31;;;;;;;9.07;7.10;;;1.60;99.90;;;;;;5093006;28;20448;-77
2021/04/07 06:49:00;;;;;;;7.80;6.50;;;1.60;99.90;;;;;;5094462;28;20513;-77
2021/04/07 06:51:32;;;;;;;7.27;6.53;;;1.70;99.90;;;;;;5094360;28;20436;-77
2021/04/07 06:54:01;;;;;;;7.30;6.10;;;1.70;99.90;;;;;;5093056;28;20893;-77
2021/04/07 06:56:30;;;;;;;8.70;7.90;;;1.70;99.90;;;;;;5094388;28;20436;-77
2021/04/07 06:58:59;;;;;;;8.23;7.50;;;1.80;99.90;;;;;;5092892;28;20599;-77
2021/04/07 07:01:27;;;;;;;7.70;7.00;;;1.80;99.90;;;;;;5094010;28;20451;-77
2021/04/07 07:03:54;;;;;;;7.23;6.53;;;1.80;99.90;;;;;;5093775;28;20457;-77
2021/04/07 07:06:23;;;;;;;7.30;6.43;;;1.90;99.90;;;;;;5093995;28;20463;-77
2021/04/07 07:08:54;;;;;;;8.50;7.23;;;1.90;99.90;;;;;;5092306;28;21004;-77
2021/04/07 07:11:21;;;;;;;7.33;6.60;;;1.90;99.90;;;;;;5092253;28;20441;-77
2021/04/07 07:13:51;;;;;;;7.50;6.13;;;2.00;99.90;;;;;;5092364;28;20448;-77
2021/04/07 07:16:25;;;;;;;8.47;7.40;;;2.00;99.90;;;;;;5092199;28;20493;-77
2021/04/07 07:18:53;;;;;;;7.63;6.87;;;2.00;99.90;;;;;;5093533;28;20483;-77
2021/04/07 07:21:21;;;;;;;7.27;6.60;;;2.10;99.90;;;;;;5093525;28;20436;-77
2021/04/07 07:23:49;;;;;;;8.43;6.80;;;2.10;99.90;;;;;;5092082;28;20824;-77
2021/04/07 07:26:20;;;;;;;8.67;7.77;;;2.10;99.90;;;;;;5093568;28;20966;-77
2021/04/07 07:28:50;;;;;;;8.00;7.20;;;2.20;99.90;;;;;;5093777;28;20786;-77
2021/04/07 07:31:24;;;;;;;7.80;7.00;;;2.20;99.90;;;;;;5093555;28;20481;-77
2021/04/07 07:33:51;;;;;;;9.00;7.77;;;2.30;99.90;;;;;;5093801;28;20474;-77
2021/04/07 07:36:23;;;;;;;8.77;7.87;;;2.30;99.90;;;;;;5091893;28;20440;-77
2021/04/07 07:38:53;;;;;;;10.63;9.53;;;2.40;99.90;;;;;;5093332;28;20883;-77
2021/04/07 07:41:25;;;;;;;8.93;8.13;;;2.40;99.90;;;;;;5096663;28;20458;-77
2021/04/07 07:44:12;;;;;;;7.83;7.03;;;2.50;99.90;;;;;;5097246;28;20423;-77
2021/04/07 07:46:40;;;;;;;8.80;7.40;;;2.50;99.90;;;;;;5096083;28;20436;-77
2021/04/07 07:49:14;;;;;;;8.40;7.60;;;2.50;99.90;;;;;;5096667;28;20498;-77
2021/04/07 07:51:48;;;;;;;8.83;8.00;;;2.60;99.90;;;;;;5096820;28;20170;-77
2021/04/07 07:54:17;;;;;;;8.53;7.73;;;2.70;99.90;;;;;;5097013;28;20421;-77
2021/04/07 07:56:47;;;;;;;6.00;5.40;;;2.70;99.90;;;;;;5097046;28;20448;-77
2021/04/07 07:59:29;;;;;;;8.23;7.40;;;2.70;99.90;;;;;;5095575;28;20484;-77
2021/04/07 08:01:57;;;;;;;10.40;9.30;;;2.70;99.90;;;;;;5095461;28;20447;-77
2021/04/07 08:04:26;;;;;;;8.97;8.07;;;2.80;99.90;;;;;;5096722;28;20498;-78
2021/04/07 08:06:58;;;;;;;9.10;8.13;;;2.80;99.90;;;;;;5095304;28;20447;-76
2021/04/07 08:09:26;;;;;;;10.80;8.50;;;2.80;99.90;;;;;;5096837;28;20475;-77
2021/04/07 08:11:55;;;;;;;10.10;9.10;;;2.90;99.90;;;;;;5095387;28;21103;-77
2021/04/07 08:14:24;;;;;;;8.07;7.27;;;2.90;99.90;;;;;;5096544;28;20901;-77
2021/04/07 08:16:55;;;;;;;7.13;6.43;;;2.90;99.90;;;;;;5096561;28;20497;-77
2021/04/07 08:19:24;;;;;;;6.00;5.40;;;2.90;99.90;;;;;;5094988;28;20475;-77
2021/04/07 08:21:58;;;;;;;4.50;4.07;;;3.00;99.90;;;;;;5096412;28;20485;-77
2021/04/07 08:24:29;;;;;;;4.33;3.93;;;3.00;99.90;;;;;;5095016;28;20459;-77
2021/04/07 08:26:58;;;;;;;4.40;3.47;;;3.00;99.90;;;;;;5096430;28;20493;-77
2021/04/07 08:29:26;;;;;;;4.60;4.10;;;3.10;99.90;;;;;;5094825;28;20568;-77
2021/04/07 08:31:54;;;;;;;4.80;2.90;;;3.10;99.90;;;;;;5096646;28;20974;-77
2021/04/07 08:34:24;;;;;;;3.57;3.10;;;3.10;99.90;;;;;;5094818;28;20446;-77
2021/04/07 08:36:53;;;;;;;5.40;4.30;;;3.20;99.90;;;;;;5094474;28;20437;-77
2021/04/07 08:39:24;;;;;;;3.60;3.30;;;3.20;99.90;;;;;;5094775;28;20523;-77
2021/04/07 08:41:51;;;;;;;4.20;2.77;;;3.20;99.90;;;;;;5096157;28;20515;-77
2021/04/07 08:44:20;;;;;;;3.90;2.73;;;3.30;99.90;;;;;;5096049;28;20439;-77
2021/04/07 08:46:54;;;;;;;3.60;2.77;;;3.30;99.90;;;;;;5096434;28;20739;-77
2021/04/07 08:49:35;;;;;;;3.60;2.97;;;3.40;99.90;;;;;;5095938;28;20453;-77
2021/04/07 08:52:15;;;;;;;7.23;4.00;;;3.40;99.90;;;;;;5094015;28;20440;-77
2021/04/07 08:54:47;;;;;;;4.23;3.70;;;3.50;99.90;;;;;;5094446;28;20458;-77
2021/04/07 08:57:26;;;;;;;6.00;3.60;;;3.60;99.90;;;;;;5094356;28;20444;-77
2021/04/07 08:59:58;;;;;;;3.70;3.40;;;3.70;99.90;;;;;;5094100;28;20487;-77
2021/04/07 09:02:29;;;;;;;3.60;3.27;;;3.80;99.90;;;;;;5094330;28;20476;-77
2021/04/07 09:05:04;;;;;;;4.70;3.90;;;3.90;99.90;;;;;;5094135;28;20440;-77
2021/04/07 09:07:42;;;;;;;3.47;3.10;;;4.00;99.90;;;;;;5095692;28;20428;-77
2021/04/07 09:10:18;;;;;;;5.83;3.77;;;4.10;99.90;;;;;;5095391;28;20456;-77
2021/04/07 09:12:50;;;;;;;3.77;3.20;;;4.30;99.90;;;;;;5094017;28;20920;-77
2021/04/07 09:15:22;;;;;;;3.73;2.57;;;4.60;99.90;;;;;;5095710;28;20789;-77
2021/04/07 09:17:53;;;;;;;5.40;3.13;;;4.80;99.90;;;;;;5095306;28;20420;-77
2021/04/07 09:20:42;;;;;;;3.90;2.47;;;5.00;99.90;;;;;;5093833;28;20537;-77
2021/04/07 09:23:24;;;;;;;3.87;2.90;;;5.20;99.90;;;;;;5095467;28;20412;-77
2021/04/07 09:25:56;;;;;;;4.00;2.80;;;5.30;99.90;;;;;;5095803;28;20429;-77
2021/04/07 09:28:35;;;;;;;3.30;3.00;;;5.40;99.90;;;;;;5095155;28;20440;-77
2021/04/07 09:31:18;;;;;;;4.00;3.10;;;5.60;99.90;;;;;;5095541;28;20508;-77
2021/04/07 09:33:48;;;;;;;6.00;2.80;;;5.70;99.90;;;;;;5095464;28;20416;-77
2021/04/07 09:36:16;;;;;;;3.87;2.60;;;5.60;99.90;;;;;;5095017;28;20463;-77
2021/04/07 09:38:47;;;;;;;4.00;3.10;;;5.60;99.90;;;;;;5094904;28;20474;-77
2021/04/07 09:41:17;;;;;;;3.40;2.70;;;5.60;99.90;;;;;;5094919;28;20412;-77
2021/04/07 09:43:44;;;;;;;4.50;2.87;;;5.60;99.90;;;;;;5094190;28;20453;-77
2021/04/07 09:46:12;;;;;;;3.50;2.83;;;5.70;99.90;;;;;;5093973;28;20440;-77
2021/04/07 09:48:43;;;;;;;3.73;2.70;;;5.80;99.90;;;;;;5095686;28;20483;-77
2021/04/07 09:51:30;;;;;;;3.13;2.60;;;6.00;99.90;;;;;;5095788;28;20448;-78
2021/04/07 09:54:12;;;;;;;4.13;3.00;;;6.20;99.90;;;;;;5096132;28;20421;-77
2021/04/07 09:56:57;;;;;;;5.10;2.53;;;6.30;99.90;;;;;;5093316;28;20502;-78
2021/04/07 09:59:37;;;;;;;4.73;2.40;;;6.40;99.90;;;;;;5094666;28;20500;-77
2021/04/07 10:02:12;;;;;;;4.67;2.37;;;6.50;99.90;;;;;;5096011;28;20412;-77
2021/04/07 10:04:41;;;;;;;4.03;2.10;;;6.50;99.90;;;;;;5094670;28;20472;-77
2021/04/07 10:07:12;;;;;;;3.23;2.20;;;6.50;99.90;;;;;;5093225;28;20468;-77
2021/04/07 10:09:42;;;;;;;2.33;1.93;;;6.50;99.90;;;;;;5094432;28;20498;-77
2021/04/07 10:12:11;;;;;;;3.10;2.00;;;6.60;99.90;;;;;;5094314;28;20436;-78
2021/04/07 10:14:45;;;;;;;3.10;2.47;;;6.60;99.90;;;;;;5095018;28;20420;-77
2021/04/07 10:17:15;;;;;;;6.30;2.50;;;6.60;99.90;;;;;;5094354;28;20417;-77
2021/04/07 10:19:43;;;;;;;4.40;3.20;;;6.60;99.90;;;;;;5093052;28;20985;-77
2021/04/07 10:22:16;;;;;;;5.37;2.40;;;6.70;99.90;;;;;;5092786;28;20937;-77
2021/04/07 10:24:45;;;;;;;4.50;2.27;;;6.70;99.90;;;;;;5092922;28;20466;-77
2021/04/07 10:27:18;;;;;;;4.63;2.10;;;6.70;99.90;;;;;;5093904;28;20444;-78
2021/04/07 10:29:45;;;;;;;5.70;2.70;;;6.80;99.90;;;;;;5092672;28;20456;-78
2021/04/07 10:32:18;;;;;;;5.13;3.20;;;6.80;99.90;;;;;;5094259;28;20428;-77
2021/04/07 10:34:47;;;;;;;7.70;2.60;;;6.80;99.90;;;;;;5092665;28;20421;-77
2021/04/07 10:37:18;;;;;;;5.90;3.00;;;6.80;99.90;;;;;;5094188;28;20891;-77
2021/04/07 10:39:45;;;;;;;5.10;3.27;;;6.90;99.90;;;;;;5092994;28;20525;-77
2021/04/07 10:42:17;;;;;;;3.83;2.40;;;6.90;99.90;;;;;;5094381;28;20440;-77
2021/04/07 10:44:56;;;;;;;5.40;3.37;;;6.90;99.90;;;;;;5092940;28;20436;-77
2021/04/07 10:47:24;;;;;;;4.80;2.80;;;7.00;99.90;;;;;;5094070;28;20469;-77
2021/04/07 10:49:53;;;;;;;3.40;3.10;;;7.10;99.90;;;;;;5093748;28;20510;-77
2021/04/07 10:52:30;;;;;;;4.33;2.70;;;7.20;99.90;;;;;;5093825;28;20502;-77
2021/04/07 10:54:59;;;;;;;4.03;2.87;;;7.20;99.90;;;;;;5092658;28;20447;-77
2021/04/07 10:57:34;;;;;;;4.00;2.80;;;7.30;99.90;;;;;;5094043;28;20529;-77
2021/04/07 11:00:03;;;;;;;4.13;2.93;;;7.50;99.90;;;;;;5093671;28;20489;-77
2021/04/07 11:02:40;;;;;;;7.07;2.70;;;7.60;99.90;;;;;;5093689;28;20485;-77
2021/04/07 11:05:16;;;;;;;5.17;3.47;;;7.70;99.90;;;;;;5093270;28;20894;-77
2021/04/07 11:07:44;;;;;;;6.40;2.80;;;7.70;99.90;;;;;;5093917;28;20951;-77
2021/04/07 11:10:13;;;;;;;6.15;3.03;;;7.70;99.90;;;;;;5090937;28;20432;-77
2021/04/07 11:12:41;;;;;;;5.30;2.50;;;7.80;99.90;;;;;;5093383;28;20291;-77
2021/04/07 11:15:09;;;;;;;4.07;3.07;;;7.70;99.90;;;;;;5096871;28;20427;-77
2021/04/07 11:17:37;;;;;;;5.40;2.87;;;7.60;99.90;;;;;;5097538;28;20530;-77
2021/04/07 11:20:06;;;;;;;3.63;2.57;;;7.50;99.90;;;;;;5097121;28;20518;-77
2021/04/07 11:22:33;;;;;;;4.57;2.03;;;7.40;99.90;;;;;;5097594;28;20470;-77
2021/04/07 11:25:00;;;;;;;4.97;2.20;;;7.20;99.90;;;;;;5097494;28;20535;-77
2021/04/07 11:27:34;;;;;;;5.80;2.57;;;7.10;99.90;;;;;;5097174;28;20475;-77
2021/04/07 11:30:02;;;;;;;4.53;2.83;;;7.00;99.90;;;;;;5097183;28;20459;-77
2021/04/07 11:32:31;;;;;;;4.67;2.63;;;7.00;99.90;;;;;;5097439;28;20440;-77
2021/04/07 11:35:23;;;;;;;5.13;2.40;;;7.00;99.90;;;;;;5095865;28;20447;-77
2021/04/07 11:37:53;;;;;;;4.10;2.73;;;7.20;99.90;;;;;;5095785;28;20447;-77
2021/04/07 11:40:42;;;;;;;6.93;3.00;;;7.20;99.90;;;;;;5096793;28;20562;-77
2021/04/07 11:43:13;;;;;;;8.60;3.00;;;7.30;99.90;;;;;;5096800;28;20420;-77
2021/04/07 11:45:40;;;;;;;6.77;2.37;;;7.20;99.90;;;;;;5095614;28;20487;-77
2021/04/07 11:48:21;;;;;;;7.90;2.77;;;7.20;99.90;;;;;;5095494;28;20431;-77
2021/04/07 11:50:49;;;;;;;8.00;2.17;;;7.10;99.90;;;;;;5095554;28;20436;-77
2021/04/07 11:53:16;;;;;;;11.57;3.00;;;7.10;99.90;;;;;;5095490;28;20440;-77
2021/04/07 11:55:44;;;;;;;10.70;2.50;;;7.10;99.90;;;;;;5095509;28;20525;-77
2021/04/07 11:58:12;;;;;;;9.63;2.90;;;7.10;99.90;;;;;;5096847;28;20494;-77
2021/04/07 12:00:39;;;;;;;6.93;2.00;;;7.10;99.90;;;;;;5096879;28;20451;-77
2021/04/07 12:03:07;;;;;;;8.23;2.30;;;7.10;99.90;;;;;;5095281;28;20439;-77
2021/04/07 12:05:37;;;;;;;6.23;2.10;;;7.00;99.90;;;;;;5096419;28;20823;-77
2021/04/07 12:08:08;;;;;;;12.53;2.40;;;7.00;99.90;;;;;;5095112;28;20447;-77
2021/04/07 12:10:36;;;;;;;6.23;1.90;;;7.00;99.90;;;;;;5095268;28;20479;-77
2021/04/07 12:13:04;;;;;;;6.90;2.30;;;7.00;99.90;;;;;;5095115;28;20543;-77
2021/04/07 12:15:32;;;;;;;5.70;2.10;;;6.90;99.90;;;;;;5096056;28;20478;-77
2021/04/07 12:18:00;;;;;;;11.53;2.83;;;6.90;99.90;;;;;;5095236;28;21017;-77
2021/04/07 12:20:27;;;;;;;5.40;2.03;;;6.90;99.90;;;;;;5096220;28;20516;-77
2021/04/07 12:22:54;;;;;;;8.97;2.83;;;6.90;99.90;;;;;;5094903;28;20659;-77
2021/04/07 12:25:24;;;;;;;7.47;2.67;;;6.90;99.90;;;;;;5095434;28;20436;-77
2021/04/07 12:27:52;;;;;;;8.00;2.30;;;7.00;99.90;;;;;;5096271;28;20494;-77
2021/04/07 12:30:21;;;;;;;10.03;2.67;;;7.00;99.90;;;;;;5095021;28;20506;-77
2021/04/07 12:32:49;;;;;;;7.87;2.27;;;7.00;99.90;;;;;;5095137;28;20553;-77
2021/04/07 12:35:17;;;;;;;6.83;2.60;;;7.00;99.90;;;;;;5096348;28;20532;-77
2021/04/07 12:37:44;;;;;;;6.07;2.40;;;7.10;99.90;;;;;;5095945;28;20436;-77
2021/04/07 12:40:13;;;;;;;5.67;2.10;;;7.10;99.90;;;;;;5096248;28;20464;-77
2021/04/07 12:42:41;;;;;;;9.33;3.10;;;7.10;99.90;;;;;;5095062;28;20531;-77
2021/04/07 12:45:10;;;;;;;9.30;2.40;;;7.10;99.90;;;;;;5096224;28;20448;-77
2021/04/07 12:47:38;;;;;;;6.53;1.97;;;7.10;99.90;;;;;;5094830;28;20557;-77
2021/04/07 12:50:07;;;;;;;8.97;2.47;;;7.10;99.90;;;;;;5096372;28;20531;-77
2021/04/07 12:52:38;;;;;;;11.50;3.33;;;7.20;99.90;;;;;;5094626;28;21008;-77
2021/04/07 12:55:07;;;;;;;10.67;2.77;;;7.20;99.90;;;;;;5094742;28;20926;-78
2021/04/07 12:57:37;;;;;;;9.87;2.87;;;7.20;99.90;;;;;;5096508;28;20801;-78
2021/04/07 13:00:07;;;;;;;7.90;2.77;;;7.20;99.90;;;;;;5095176;28;20875;-78
2021/04/07 13:02:35;;;;;;;9.43;2.50;;;7.20;99.90;;;;;;5096502;28;20485;-78
2021/04/07 13:05:07;;;;;;;5.40;2.03;;;7.30;99.90;;;;;;5095171;28;20445;-77
2021/04/07 13:07:34;;;;;;;7.70;3.30;;;7.30;99.90;;;;;;5096551;28;20854;-77